Terminal Aerodrome Forecast
Issued by NWS

Home | Current Version | Previous Version | Text Only | Print | Product List | Glossary Off
Versions: 1 2 3 4 5 6 7 8 9 10 11 12 13 14 15 16

000
FTUS43 KBIS 030534
TAFJMS
TAF
KJMS 030534Z 0306/0406 35009KT P6SM SCT150
     FM031000 34014KT P6SM BKN110
     FM031400 33014G21KT P6SM VCSH SCT070 BKN100
     FM031800 34017KT P6SM SCT150
     FM040100 33005KT P6SM SKC=

USA.gov is the U.S. government's official web portal to all federal, state and local government web resources and services.